1OH5 weather

Minit-Men Inc Heliport
San Marghareta, Ohio, United States

Public forecast

Using degrees Fahrenheit for public forecast. Weather courtesy of forecast.io.

Closest aviation weather report (METAR) to Minit-Men Inc Heliport

Closest report is The Ohio State University Airport - Don Scott Field, 5.0 nm (9.2 km) N. Retrieved 2020/05/27 22:53 UTC (30 minutes ago):

KOSU 272253Z 16011KT 10SM FEW060 28/16 A2997 RMK AO2 SLP142 T02780161

Closest aviation forecast (TAF) to Minit-Men Inc Heliport

Closest forecast is John Glenn Columbus International Airport, 8.9 nm (16.5 km) E. Retrieved 2020/05/27 18:22 UTC (5 hours ago):

TAF KCMH 271720Z 2718/2818 16007G15KT P6SM SCT035 BKN120 FM280300 14004KT P6SM FEW028 OVC080 FM280600 14005KT P6SM VCSH SCT028 OVC035 FM281400 17004KT P6SM VCSH SCT022 FM281600 19006KT P6SM SCT050